sensor_id;sensor_type;location;lat;lon;timestamp;temperature;humidity
52513;DHT22;38422;53.172;6.974;2023-10-08T00:01:50;14.60;99.90
52513;DHT22;38422;53.172;6.974;2023-10-08T00:04:17;14.60;99.90
52513;DHT22;38422;53.172;6.974;2023-10-08T00:06:45;14.60;99.90
52513;DHT22;38422;53.172;6.974;2023-10-08T00:09:12;14.70;99.90
52513;DHT22;38422;53.172;6.974;2023-10-08T00:11:40;14.70;99.90
52513;DHT22;38422;53.172;6.974;2023-10-08T00:14:06;14.70;99.90
52513;DHT22;38422;53.172;6.974;2023-10-08T00:16:36;14.70;99.90
52513;DHT22;38422;53.172;6.974;2023-10-08T00:19:06;14.70;99.90
52513;DHT22;38422;53.172;6.974;2023-10-08T00:21:38;14.70;99.90
52513;DHT22;38422;53.172;6.974;2023-10-08T00:24:05;14.60;99.90
52513;DHT22;38422;53.172;6.974;2023-10-08T00:26:33;14.60;99.90
52513;DHT22;38422;53.172;6.974;2023-10-08T00:29:03;14.60;99.90
52513;DHT22;38422;53.172;6.974;2023-10-08T00:32:01;14.60;99.90
52513;DHT22;38422;53.172;6.974;2023-10-08T00:34:37;14.60;99.90
52513;DHT22;38422;53.172;6.974;2023-10-08T00:37:07;14.60;99.90
52513;DHT22;38422;53.172;6.974;2023-10-08T00:39:35;14.60;99.90
52513;DHT22;38422;53.172;6.974;2023-10-08T00:42:03;14.60;99.90
52513;DHT22;38422;53.172;6.974;2023-10-08T00:44:32;14.60;99.90
52513;DHT22;38422;53.172;6.974;2023-10-08T00:47:01;14.60;99.90
52513;DHT22;38422;53.172;6.974;2023-10-08T00:49:30;14.60;99.90
52513;DHT22;38422;53.172;6.974;2023-10-08T00:52:06;14.60;99.90
52513;DHT22;38422;53.172;6.974;2023-10-08T00:54:37;14.60;99.90
52513;DHT22;38422;53.172;6.974;2023-10-08T00:57:26;14.60;99.90
52513;DHT22;38422;53.172;6.974;2023-10-08T00:59:54;14.60;99.90
52513;DHT22;38422;53.172;6.974;2023-10-08T01:02:21;14.60;99.90
52513;DHT22;38422;53.172;6.974;2023-10-08T01:04:52;14.60;99.90
52513;DHT22;38422;53.172;6.974;2023-10-08T01:07:20;14.60;99.90
52513;DHT22;38422;53.172;6.974;2023-10-08T01:09:46;14.60;99.90
52513;DHT22;38422;53.172;6.974;2023-10-08T01:12:26;14.60;99.90
52513;DHT22;38422;53.172;6.974;2023-10-08T01:14:52;14.50;99.90
52513;DHT22;38422;53.172;6.974;2023-10-08T01:17:23;14.50;99.90
52513;DHT22;38422;53.172;6.974;2023-10-08T01:19:52;14.50;99.90
52513;DHT22;38422;53.172;6.974;2023-10-08T01:22:56;14.50;99.90
52513;DHT22;38422;53.172;6.974;2023-10-08T01:25:23;14.50;99.90
52513;DHT22;38422;53.172;6.974;2023-10-08T01:27:56;14.50;99.90
52513;DHT22;38422;53.172;6.974;2023-10-08T01:30:21;14.40;99.90
52513;DHT22;38422;53.172;6.974;2023-10-08T01:32:47;14.40;99.90
52513;DHT22;38422;53.172;6.974;2023-10-08T01:35:13;14.40;99.90
52513;DHT22;38422;53.172;6.974;2023-10-08T01:37:54;14.40;99.90
52513;DHT22;38422;53.172;6.974;2023-10-08T01:40:22;14.40;99.90
52513;DHT22;38422;53.172;6.974;2023-10-08T01:42:51;14.40;99.90
52513;DHT22;38422;53.172;6.974;2023-10-08T01:45:17;14.40;99.90
52513;DHT22;38422;53.172;6.974;2023-10-08T01:47:44;14.40;99.90
52513;DHT22;38422;53.172;6.974;2023-10-08T01:50:10;14.40;99.90
52513;DHT22;38422;53.172;6.974;2023-10-08T01:52:50;14.40;99.90
52513;DHT22;38422;53.172;6.974;2023-10-08T01:55:19;14.40;99.90
52513;DHT22;38422;53.172;6.974;2023-10-08T01:57:49;14.40;99.90
52513;DHT22;38422;53.172;6.974;2023-10-08T02:00:17;14.40;99.90
52513;DHT22;38422;53.172;6.974;2023-10-08T02:02:51;14.40;99.90
52513;DHT22;38422;53.172;6.974;2023-10-08T02:05:17;14.40;99.90
52513;DHT22;38422;53.172;6.974;2023-10-08T02:07:47;14.40;99.90
52513;DHT22;38422;53.172;6.974;2023-10-08T02:10:13;14.40;99.90
52513;DHT22;38422;53.172;6.974;2023-10-08T02:12:40;14.40;99.90
52513;DHT22;38422;53.172;6.974;2023-10-08T02:15:07;14.40;99.90
52513;DHT22;38422;53.172;6.974;2023-10-08T02:17:34;14.40;99.90
52513;DHT22;38422;53.172;6.974;2023-10-08T02:20:00;14.40;99.90
52513;DHT22;38422;53.172;6.974;2023-10-08T02:22:30;14.40;99.90
52513;DHT22;38422;53.172;6.974;2023-10-08T02:24:56;14.40;99.90
52513;DHT22;38422;53.172;6.974;2023-10-08T02:27:30;14.40;99.90
52513;DHT22;38422;53.172;6.974;2023-10-08T02:29:58;14.40;99.90
52513;DHT22;38422;53.172;6.974;2023-10-08T02:32:24;14.30;99.90
52513;DHT22;38422;53.172;6.974;2023-10-08T02:34:49;14.30;99.90
52513;DHT22;38422;53.172;6.974;2023-10-08T02:37:16;14.30;99.90
52513;DHT22;38422;53.172;6.974;2023-10-08T02:39:42;14.30;99.90
52513;DHT22;38422;53.172;6.974;2023-10-08T02:42:08;14.30;99.90
52513;DHT22;38422;53.172;6.974;2023-10-08T02:44:36;14.30;99.90
52513;DHT22;38422;53.172;6.974;2023-10-08T02:47:11;14.30;99.90
52513;DHT22;38422;53.172;6.974;2023-10-08T02:49:38;14.30;99.90
52513;DHT22;38422;53.172;6.974;2023-10-08T02:52:06;14.30;99.90
52513;DHT22;38422;53.172;6.974;2023-10-08T02:54:34;14.30;99.90
52513;DHT22;38422;53.172;6.974;2023-10-08T02:57:01;14.30;99.90
52513;DHT22;38422;53.172;6.974;2023-10-08T02:59:35;14.30;99.90
52513;DHT22;38422;53.172;6.974;2023-10-08T03:02:14;14.30;99.90
52513;DHT22;38422;53.172;6.974;2023-10-08T03:04:48;14.30;99.90
52513;DHT22;38422;53.172;6.974;2023-10-08T03:07:16;14.30;99.90
52513;DHT22;38422;53.172;6.974;2023-10-08T03:09:48;14.30;99.90
52513;DHT22;38422;53.172;6.974;2023-10-08T03:12:16;14.30;99.90
52513;DHT22;38422;53.172;6.974;2023-10-08T03:14:43;14.30;99.90
52513;DHT22;38422;53.172;6.974;2023-10-08T03:17:38;14.30;99.90
52513;DHT22;38422;53.172;6.974;2023-10-08T03:20:05;14.30;99.90
52513;DHT22;38422;53.172;6.974;2023-10-08T03:22:51;14.20;99.90
52513;DHT22;38422;53.172;6.974;2023-10-08T03:25:16;14.20;99.90
52513;DHT22;38422;53.172;6.974;2023-10-08T03:27:43;14.20;99.90
52513;DHT22;38422;53.172;6.974;2023-10-08T03:30:09;14.20;99.90
52513;DHT22;38422;53.172;6.974;2023-10-08T03:32:44;14.20;99.90
52513;DHT22;38422;53.172;6.974;2023-10-08T03:35:21;14.20;99.90
52513;DHT22;38422;53.172;6.974;2023-10-08T03:37:54;14.20;99.90
52513;DHT22;38422;53.172;6.974;2023-10-08T03:40:20;14.20;99.90
52513;DHT22;38422;53.172;6.974;2023-10-08T03:43:08;14.20;99.90
52513;DHT22;38422;53.172;6.974;2023-10-08T03:45:45;14.20;99.90
52513;DHT22;38422;53.172;6.974;2023-10-08T03:48:19;14.20;99.90
52513;DHT22;38422;53.172;6.974;2023-10-08T03:50:48;14.20;99.90
52513;DHT22;38422;53.172;6.974;2023-10-08T03:53:22;14.20;99.90
52513;DHT22;38422;53.172;6.974;2023-10-08T03:55:48;14.20;99.90
52513;DHT22;38422;53.172;6.974;2023-10-08T03:58:17;14.20;99.90
52513;DHT22;38422;53.172;6.974;2023-10-08T04:00:55;14.20;99.90
52513;DHT22;38422;53.172;6.974;2023-10-08T04:03:34;14.20;99.90
52513;DHT22;38422;53.172;6.974;2023-10-08T04:06:23;14.20;99.90
52513;DHT22;38422;53.172;6.974;2023-10-08T04:08:54;14.20;99.90
52513;DHT22;38422;53.172;6.974;2023-10-08T04:11:37;14.20;99.90
52513;DHT22;38422;53.172;6.974;2023-10-08T04:14:18;14.20;99.90
52513;DHT22;38422;53.172;6.974;2023-10-08T04:16:45;14.20;99.90
52513;DHT22;38422;53.172;6.974;2023-10-08T04:19:11;14.10;99.90
52513;DHT22;38422;53.172;6.974;2023-10-08T04:21:37;14.10;99.90
52513;DHT22;38422;53.172;6.974;2023-10-08T04:24:07;14.20;99.90
52513;DHT22;38422;53.172;6.974;2023-10-08T04:26:34;14.20;99.90
52513;DHT22;38422;53.172;6.974;2023-10-08T04:29:01;14.20;99.90
52513;DHT22;38422;53.172;6.974;2023-10-08T04:31:31;14.20;99.90
52513;DHT22;38422;53.172;6.974;2023-10-08T04:34:06;14.20;99.90
52513;DHT22;38422;53.172;6.974;2023-10-08T04:36:44;14.20;99.90
52513;DHT22;38422;53.172;6.974;2023-10-08T04:39:23;14.20;99.90
52513;DHT22;38422;53.172;6.974;2023-10-08T04:41:57;14.10;99.90
52513;DHT22;38422;53.172;6.974;2023-10-08T04:44:24;14.10;99.90
52513;DHT22;38422;53.172;6.974;2023-10-08T04:46:51;14.10;99.90
52513;DHT22;38422;53.172;6.974;2023-10-08T04:49:18;14.10;99.90
52513;DHT22;38422;53.172;6.974;2023-10-08T04:51:58;14.10;99.90
52513;DHT22;38422;53.172;6.974;2023-10-08T04:54:25;14.10;99.90
52513;DHT22;38422;53.172;6.974;2023-10-08T04:57:01;14.10;99.90
52513;DHT22;38422;53.172;6.974;2023-10-08T04:59:31;14.10;99.90
52513;DHT22;38422;53.172;6.974;2023-10-08T05:02:01;14.10;99.90
52513;DHT22;38422;53.172;6.974;2023-10-08T05:04:49;14.10;99.90
52513;DHT22;38422;53.172;6.974;2023-10-08T05:07:14;14.10;99.90
52513;DHT22;38422;53.172;6.974;2023-10-08T05:09:47;14.10;99.90
52513;DHT22;38422;53.172;6.974;2023-10-08T05:12:18;14.10;99.90
52513;DHT22;38422;53.172;6.974;2023-10-08T05:15:14;14.10;99.90
52513;DHT22;38422;53.172;6.974;2023-10-08T05:17:44;14.10;99.90
52513;DHT22;38422;53.172;6.974;2023-10-08T05:20:16;14.10;99.90
52513;DHT22;38422;53.172;6.974;2023-10-08T05:23:00;14.10;99.90
52513;DHT22;38422;53.172;6.974;2023-10-08T05:25:47;14.00;99.90
52513;DHT22;38422;53.172;6.974;2023-10-08T05:28:37;14.00;99.90
52513;DHT22;38422;53.172;6.974;2023-10-08T05:31:14;14.00;99.90
52513;DHT22;38422;53.172;6.974;2023-10-08T05:33:43;14.00;99.90
52513;DHT22;38422;53.172;6.974;2023-10-08T05:36:11;14.00;99.90
52513;DHT22;38422;53.172;6.974;2023-10-08T05:38:44;14.00;99.90
52513;DHT22;38422;53.172;6.974;2023-10-08T05:41:36;14.00;99.90
52513;DHT22;38422;53.172;6.974;2023-10-08T05:44:16;13.90;99.90
52513;DHT22;38422;53.172;6.974;2023-10-08T05:46:44;13.90;99.90
52513;DHT22;38422;53.172;6.974;2023-10-08T05:49:19;13.90;99.90
52513;DHT22;38422;53.172;6.974;2023-10-08T05:52:03;13.90;99.90
52513;DHT22;38422;53.172;6.974;2023-10-08T05:54:29;13.90;99.90
52513;DHT22;38422;53.172;6.974;2023-10-08T05:59:31;13.90;99.90
52513;DHT22;38422;53.172;6.974;2023-10-08T06:02:07;13.90;99.90
52513;DHT22;38422;53.172;6.974;2023-10-08T06:05:12;13.90;99.90
52513;DHT22;38422;53.172;6.974;2023-10-08T06:07:44;13.90;99.90
52513;DHT22;38422;53.172;6.974;2023-10-08T06:10:20;13.90;99.90
52513;DHT22;38422;53.172;6.974;2023-10-08T06:13:13;13.90;99.90
52513;DHT22;38422;53.172;6.974;2023-10-08T06:15:47;13.90;99.90
52513;DHT22;38422;53.172;6.974;2023-10-08T06:18:28;13.90;99.90
52513;DHT22;38422;53.172;6.974;2023-10-08T06:20:55;13.90;99.90
52513;DHT22;38422;53.172;6.974;2023-10-08T06:23:22;14.00;99.90
52513;DHT22;38422;53.172;6.974;2023-10-08T06:25:55;14.00;99.90
52513;DHT22;38422;53.172;6.974;2023-10-08T06:28:40;14.00;99.90
52513;DHT22;38422;53.172;6.974;2023-10-08T06:31:07;14.00;99.90
52513;DHT22;38422;53.172;6.974;2023-10-08T06:33:37;14.00;99.90
52513;DHT22;38422;53.172;6.974;2023-10-08T06:36:04;14.00;99.90
52513;DHT22;38422;53.172;6.974;2023-10-08T06:38:42;14.00;99.90
52513;DHT22;38422;53.172;6.974;2023-10-08T06:41:10;14.00;99.90
52513;DHT22;38422;53.172;6.974;2023-10-08T06:43:39;14.00;99.90
52513;DHT22;38422;53.172;6.974;2023-10-08T06:46:08;14.10;99.90
52513;DHT22;38422;53.172;6.974;2023-10-08T06:48:38;14.10;99.90
52513;DHT22;38422;53.172;6.974;2023-10-08T06:51:08;14.20;99.90
52513;DHT22;38422;53.172;6.974;2023-10-08T06:53:42;14.20;99.90
52513;DHT22;38422;53.172;6.974;2023-10-08T06:56:11;14.20;99.90
52513;DHT22;38422;53.172;6.974;2023-10-08T06:58:38;14.30;99.90
52513;DHT22;38422;53.172;6.974;2023-10-08T07:01:04;14.30;99.90
52513;DHT22;38422;53.172;6.974;2023-10-08T07:03:31;14.30;99.90
52513;DHT22;38422;53.172;6.974;2023-10-08T07:05:59;14.40;99.90
52513;DHT22;38422;53.172;6.974;2023-10-08T07:08:30;14.40;99.90
52513;DHT22;38422;53.172;6.974;2023-10-08T07:11:02;14.40;99.90
52513;DHT22;38422;53.172;6.974;2023-10-08T07:13:32;14.40;99.90
52513;DHT22;38422;53.172;6.974;2023-10-08T07:15:58;14.40;99.90
52513;DHT22;38422;53.172;6.974;2023-10-08T07:18:28;14.50;99.90
52513;DHT22;38422;53.172;6.974;2023-10-08T07:20:57;14.50;99.90
52513;DHT22;38422;53.172;6.974;2023-10-08T07:23:27;14.60;99.90
52513;DHT22;38422;53.172;6.974;2023-10-08T07:26:02;14.60;99.90
52513;DHT22;38422;53.172;6.974;2023-10-08T07:28:42;14.60;99.90
52513;DHT22;38422;53.172;6.974;2023-10-08T07:31:18;14.60;99.90
52513;DHT22;38422;53.172;6.974;2023-10-08T07:36:42;14.60;99.90
52513;DHT22;38422;53.172;6.974;2023-10-08T07:39:09;14.70;99.90
52513;DHT22;38422;53.172;6.974;2023-10-08T07:41:49;14.70;99.90
52513;DHT22;38422;53.172;6.974;2023-10-08T07:44:15;14.70;99.90
52513;DHT22;38422;53.172;6.974;2023-10-08T07:46:41;14.70;99.90
52513;DHT22;38422;53.172;6.974;2023-10-08T07:49:07;14.70;99.90
52513;DHT22;38422;53.172;6.974;2023-10-08T07:51:32;14.70;99.90
52513;DHT22;38422;53.172;6.974;2023-10-08T07:53:59;14.70;99.90
52513;DHT22;38422;53.172;6.974;2023-10-08T07:56:26;14.70;99.90
52513;DHT22;38422;53.172;6.974;2023-10-08T07:58:52;14.70;99.90
52513;DHT22;38422;53.172;6.974;2023-10-08T08:01:22;14.70;99.90
52513;DHT22;38422;53.172;6.974;2023-10-08T08:03:50;14.70;99.90
52513;DHT22;38422;53.172;6.974;2023-10-08T08:06:16;14.70;99.90
52513;DHT22;38422;53.172;6.974;2023-10-08T08:08:42;14.70;99.90
52513;DHT22;38422;53.172;6.974;2023-10-08T08:11:10;14.80;99.90
52513;DHT22;38422;53.172;6.974;2023-10-08T08:13:43;14.80;99.90
52513;DHT22;38422;53.172;6.974;2023-10-08T08:16:12;14.80;99.90
52513;DHT22;38422;53.172;6.974;2023-10-08T08:18:53;14.80;99.90
52513;DHT22;38422;53.172;6.974;2023-10-08T08:21:22;14.90;99.90
52513;DHT22;38422;53.172;6.974;2023-10-08T08:23:49;15.00;99.90
52513;DHT22;38422;53.172;6.974;2023-10-08T08:26:16;15.00;99.90
52513;DHT22;38422;53.172;6.974;2023-10-08T08:29:00;15.10;99.90
52513;DHT22;38422;53.172;6.974;2023-10-08T08:31:28;15.20;99.90
52513;DHT22;38422;53.172;6.974;2023-10-08T08:33:58;15.20;99.90
52513;DHT22;38422;53.172;6.974;2023-10-08T08:36:45;15.30;99.90
52513;DHT22;38422;53.172;6.974;2023-10-08T08:39:15;15.30;99.90
52513;DHT22;38422;53.172;6.974;2023-10-08T08:42:01;15.40;99.90
52513;DHT22;38422;53.172;6.974;2023-10-08T08:44:31;15.40;99.90
52513;DHT22;38422;53.172;6.974;2023-10-08T08:47:00;15.40;99.90
52513;DHT22;38422;53.172;6.974;2023-10-08T08:49:32;15.50;99.90
52513;DHT22;38422;53.172;6.974;2023-10-08T08:52:00;15.50;99.90
52513;DHT22;38422;53.172;6.974;2023-10-08T08:54:27;15.50;99.90
52513;DHT22;38422;53.172;6.974;2023-10-08T08:56:57;15.60;99.90
52513;DHT22;38422;53.172;6.974;2023-10-08T08:59:26;15.60;99.90
52513;DHT22;38422;53.172;6.974;2023-10-08T09:01:53;15.60;99.90
52513;DHT22;38422;53.172;6.974;2023-10-08T09:04:28;15.60;99.90
52513;DHT22;38422;53.172;6.974;2023-10-08T09:06:55;15.70;99.90
52513;DHT22;38422;53.172;6.974;2023-10-08T09:09:21;15.80;99.90
52513;DHT22;38422;53.172;6.974;2023-10-08T09:11:52;15.90;99.90
52513;DHT22;38422;53.172;6.974;2023-10-08T09:14:22;16.00;99.90
52513;DHT22;38422;53.172;6.974;2023-10-08T09:16:49;16.00;99.90
52513;DHT22;38422;53.172;6.974;2023-10-08T09:19:16;16.10;99.90
52513;DHT22;38422;53.172;6.974;2023-10-08T09:22:06;16.10;99.90
52513;DHT22;38422;53.172;6.974;2023-10-08T09:24:39;16.10;99.90
52513;DHT22;38422;53.172;6.974;2023-10-08T09:27:06;16.20;99.90
52513;DHT22;38422;53.172;6.974;2023-10-08T09:29:36;16.30;99.90
52513;DHT22;38422;53.172;6.974;2023-10-08T09:32:07;16.40;99.90
52513;DHT22;38422;53.172;6.974;2023-10-08T09:34:33;16.50;99.90
52513;DHT22;38422;53.172;6.974;2023-10-08T09:37:00;16.70;99.90
52513;DHT22;38422;53.172;6.974;2023-10-08T09:39:27;16.90;99.90
52513;DHT22;38422;53.172;6.974;2023-10-08T09:41:58;17.00;99.90
52513;DHT22;38422;53.172;6.974;2023-10-08T09:44:25;17.10;99.90
52513;DHT22;38422;53.172;6.974;2023-10-08T09:47:02;17.10;99.90
52513;DHT22;38422;53.172;6.974;2023-10-08T09:49:31;17.20;99.90
52513;DHT22;38422;53.172;6.974;2023-10-08T09:52:06;17.30;99.90
52513;DHT22;38422;53.172;6.974;2023-10-08T09:54:44;17.40;99.90
52513;DHT22;38422;53.172;6.974;2023-10-08T09:57:13;17.40;99.90
52513;DHT22;38422;53.172;6.974;2023-10-08T09:59:40;17.40;99.90
52513;DHT22;38422;53.172;6.974;2023-10-08T10:02:06;17.40;99.90
52513;DHT22;38422;53.172;6.974;2023-10-08T10:04:35;17.30;99.90
52513;DHT22;38422;53.172;6.974;2023-10-08T10:07:13;17.30;99.90
52513;DHT22;38422;53.172;6.974;2023-10-08T10:09:46;17.30;99.90
52513;DHT22;38422;53.172;6.974;2023-10-08T10:12:20;17.30;99.90
52513;DHT22;38422;53.172;6.974;2023-10-08T10:14:52;17.20;99.90
52513;DHT22;38422;53.172;6.974;2023-10-08T10:17:25;17.20;99.90
52513;DHT22;38422;53.172;6.974;2023-10-08T10:20:01;17.20;99.90
52513;DHT22;38422;53.172;6.974;2023-10-08T10:22:34;17.20;99.90
52513;DHT22;38422;53.172;6.974;2023-10-08T10:25:03;17.20;99.90
52513;DHT22;38422;53.172;6.974;2023-10-08T10:30:24;17.20;99.90
52513;DHT22;38422;53.172;6.974;2023-10-08T10:32:54;17.30;99.90
52513;DHT22;38422;53.172;6.974;2023-10-08T10:35:20;17.30;99.90
52513;DHT22;38422;53.172;6.974;2023-10-08T10:37:49;17.30;99.90
52513;DHT22;38422;53.172;6.974;2023-10-08T10:40:24;17.40;99.90
52513;DHT22;38422;53.172;6.974;2023-10-08T10:43:10;17.40;99.90
52513;DHT22;38422;53.172;6.974;2023-10-08T10:45:35;17.40;99.90
52513;DHT22;38422;53.172;6.974;2023-10-08T10:48:05;17.40;99.90
52513;DHT22;38422;53.172;6.974;2023-10-08T10:50:48;17.40;99.90
52513;DHT22;38422;53.172;6.974;2023-10-08T10:53:17;17.50;99.90
52513;DHT22;38422;53.172;6.974;2023-10-08T10:55:44;17.60;99.90
52513;DHT22;38422;53.172;6.974;2023-10-08T10:58:25;17.70;99.90
52513;DHT22;38422;53.172;6.974;2023-10-08T11:00:51;17.70;99.90
52513;DHT22;38422;53.172;6.974;2023-10-08T11:03:24;17.80;99.90
52513;DHT22;38422;53.172;6.974;2023-10-08T11:05:58;17.90;99.90
52513;DHT22;38422;53.172;6.974;2023-10-08T11:08:26;17.90;99.90
52513;DHT22;38422;53.172;6.974;2023-10-08T11:10:53;17.90;99.90
52513;DHT22;38422;53.172;6.974;2023-10-08T11:13:24;17.90;99.90
52513;DHT22;38422;53.172;6.974;2023-10-08T11:16:04;17.90;99.90
52513;DHT22;38422;53.172;6.974;2023-10-08T11:18:30;17.80;99.90
52513;DHT22;38422;53.172;6.974;2023-10-08T11:21:13;17.90;99.90
52513;DHT22;38422;53.172;6.974;2023-10-08T11:23:48;17.90;99.90
52513;DHT22;38422;53.172;6.974;2023-10-08T11:26:25;17.90;99.90
52513;DHT22;38422;53.172;6.974;2023-10-08T11:28:58;17.90;99.90
52513;DHT22;38422;53.172;6.974;2023-10-08T11:31:27;17.90;99.90
52513;DHT22;38422;53.172;6.974;2023-10-08T11:34:02;17.90;99.90
52513;DHT22;38422;53.172;6.974;2023-10-08T11:36:35;17.90;99.90
52513;DHT22;38422;53.172;6.974;2023-10-08T11:39:14;17.90;99.90
52513;DHT22;38422;53.172;6.974;2023-10-08T11:41:59;17.90;99.90
52513;DHT22;38422;53.172;6.974;2023-10-08T11:44:33;18.00;99.90
52513;DHT22;38422;53.172;6.974;2023-10-08T11:47:04;18.00;99.90
52513;DHT22;38422;53.172;6.974;2023-10-08T11:49:38;18.10;99.90
52513;DHT22;38422;53.172;6.974;2023-10-08T11:52:43;18.20;99.90
52513;DHT22;38422;53.172;6.974;2023-10-08T11:55:09;18.20;99.90
52513;DHT22;38422;53.172;6.974;2023-10-08T11:57:36;18.30;99.90
52513;DHT22;38422;53.172;6.974;2023-10-08T12:00:03;18.30;99.90
52513;DHT22;38422;53.172;6.974;2023-10-08T12:07:08;18.50;99.90
52513;DHT22;38422;53.172;6.974;2023-10-08T12:13:21;18.40;99.90
52513;DHT22;38422;53.172;6.974;2023-10-08T12:24:54;18.70;99.90
52513;DHT22;38422;53.172;6.974;2023-10-08T12:31:08;19.00;99.90
52513;DHT22;38422;53.172;6.974;2023-10-08T12:33:35;19.20;99.90
52513;DHT22;38422;53.172;6.974;2023-10-08T12:36:01;19.20;99.90
52513;DHT22;38422;53.172;6.974;2023-10-08T12:38:37;19.20;99.90
52513;DHT22;38422;53.172;6.974;2023-10-08T12:41:02;19.20;99.90
52513;DHT22;38422;53.172;6.974;2023-10-08T12:43:37;19.20;99.90
52513;DHT22;38422;53.172;6.974;2023-10-08T12:46:04;19.20;99.90
52513;DHT22;38422;53.172;6.974;2023-10-08T12:48:36;19.30;99.90
52513;DHT22;38422;53.172;6.974;2023-10-08T12:51:02;19.30;99.90
52513;DHT22;38422;53.172;6.974;2023-10-08T12:53:31;19.40;99.90
52513;DHT22;38422;53.172;6.974;2023-10-08T12:56:06;19.70;99.90
52513;DHT22;38422;53.172;6.974;2023-10-08T12:58:36;20.10;99.90
52513;DHT22;38422;53.172;6.974;2023-10-08T13:01:14;20.40;99.00
52513;DHT22;38422;53.172;6.974;2023-10-08T13:03:43;20.60;99.10
52513;DHT22;38422;53.172;6.974;2023-10-08T13:06:18;20.80;99.00
52513;DHT22;38422;53.172;6.974;2023-10-08T13:08:59;20.90;98.70
52513;DHT22;38422;53.172;6.974;2023-10-08T13:11:28;21.10;98.60
52513;DHT22;38422;53.172;6.974;2023-10-08T13:13:57;21.20;97.90
52513;DHT22;38422;53.172;6.974;2023-10-08T13:16:25;21.20;97.70
52513;DHT22;38422;53.172;6.974;2023-10-08T13:18:51;21.10;97.70
52513;DHT22;38422;53.172;6.974;2023-10-08T13:21:18;20.90;97.80
52513;DHT22;38422;53.172;6.974;2023-10-08T13:23:53;20.60;97.70
52513;DHT22;38422;53.172;6.974;2023-10-08T13:26:19;20.40;97.60
52513;DHT22;38422;53.172;6.974;2023-10-08T13:28:48;20.20;97.70
52513;DHT22;38422;53.172;6.974;2023-10-08T13:31:14;20.00;97.90
52513;DHT22;38422;53.172;6.974;2023-10-08T13:33:42;19.90;98.00
52513;DHT22;38422;53.172;6.974;2023-10-08T13:36:10;19.80;97.80
52513;DHT22;38422;53.172;6.974;2023-10-08T13:38:36;19.80;97.70
52513;DHT22;38422;53.172;6.974;2023-10-08T13:41:03;19.70;97.20
52513;DHT22;38422;53.172;6.974;2023-10-08T13:43:33;19.70;98.00
52513;DHT22;38422;53.172;6.974;2023-10-08T13:46:06;19.60;97.80
52513;DHT22;38422;53.172;6.974;2023-10-08T13:48:35;19.50;97.60
52513;DHT22;38422;53.172;6.974;2023-10-08T13:51:02;19.50;98.00
52513;DHT22;38422;53.172;6.974;2023-10-08T13:53:32;19.50;98.00
52513;DHT22;38422;53.172;6.974;2023-10-08T13:55:59;19.60;98.00
52513;DHT22;38422;53.172;6.974;2023-10-08T13:58:30;19.80;98.30
52513;DHT22;38422;53.172;6.974;2023-10-08T14:00:57;20.00;98.10
52513;DHT22;38422;53.172;6.974;2023-10-08T14:03:26;20.20;97.10
52513;DHT22;38422;53.172;6.974;2023-10-08T14:05:52;20.10;98.00
52513;DHT22;38422;53.172;6.974;2023-10-08T14:08:18;20.10;98.00
52513;DHT22;38422;53.172;6.974;2023-10-08T14:10:45;20.00;98.00
52513;DHT22;38422;53.172;6.974;2023-10-08T14:13:11;19.80;98.10
52513;DHT22;38422;53.172;6.974;2023-10-08T14:15:37;19.70;98.30
52513;DHT22;38422;53.172;6.974;2023-10-08T14:18:10;19.50;98.50
52513;DHT22;38422;53.172;6.974;2023-10-08T14:20:40;19.40;98.70
52513;DHT22;38422;53.172;6.974;2023-10-08T14:23:06;19.30;98.80
52513;DHT22;38422;53.172;6.974;2023-10-08T14:25:32;19.10;98.90
52513;DHT22;38422;53.172;6.974;2023-10-08T14:28:00;19.00;99.20
52513;DHT22;38422;53.172;6.974;2023-10-08T14:30:33;18.90;99.20
52513;DHT22;38422;53.172;6.974;2023-10-08T14:33:06;18.80;99.40
52513;DHT22;38422;53.172;6.974;2023-10-08T14:35:34;18.70;99.50
52513;DHT22;38422;53.172;6.974;2023-10-08T14:38:18;18.60;99.60
52513;DHT22;38422;53.172;6.974;2023-10-08T14:41:02;18.60;99.90
52513;DHT22;38422;53.172;6.974;2023-10-08T14:43:46;18.60;99.90
52513;DHT22;38422;53.172;6.974;2023-10-08T14:46:14;18.50;99.90
52513;DHT22;38422;53.172;6.974;2023-10-08T14:48:40;18.50;99.90
52513;DHT22;38422;53.172;6.974;2023-10-08T14:51:06;18.60;99.90
52513;DHT22;38422;53.172;6.974;2023-10-08T14:53:44;18.70;99.90
52513;DHT22;38422;53.172;6.974;2023-10-08T14:56:10;18.70;99.90
52513;DHT22;38422;53.172;6.974;2023-10-08T14:58:36;18.80;99.90
52513;DHT22;38422;53.172;6.974;2023-10-08T15:01:01;18.90;99.90
52513;DHT22;38422;53.172;6.974;2023-10-08T15:03:27;18.80;99.90
52513;DHT22;38422;53.172;6.974;2023-10-08T15:05:53;18.70;99.90
52513;DHT22;38422;53.172;6.974;2023-10-08T15:08:18;18.60;99.90
52513;DHT22;38422;53.172;6.974;2023-10-08T15:10:44;18.60;99.90
52513;DHT22;38422;53.172;6.974;2023-10-08T15:13:12;18.60;99.90
52513;DHT22;38422;53.172;6.974;2023-10-08T15:15:38;18.50;99.90
52513;DHT22;38422;53.172;6.974;2023-10-08T15:18:05;18.50;99.90
52513;DHT22;38422;53.172;6.974;2023-10-08T15:20:32;18.50;99.90
52513;DHT22;38422;53.172;6.974;2023-10-08T15:22:59;18.40;99.90
52513;DHT22;38422;53.172;6.974;2023-10-08T15:25:25;18.40;99.90
52513;DHT22;38422;53.172;6.974;2023-10-08T15:27:51;18.30;99.90
52513;DHT22;38422;53.172;6.974;2023-10-08T15:30:18;18.30;99.90
52513;DHT22;38422;53.172;6.974;2023-10-08T15:32:46;18.20;99.90
52513;DHT22;38422;53.172;6.974;2023-10-08T15:35:17;18.20;99.90
52513;DHT22;38422;53.172;6.974;2023-10-08T15:37:49;18.10;99.90
52513;DHT22;38422;53.172;6.974;2023-10-08T15:40:15;18.10;99.90
52513;DHT22;38422;53.172;6.974;2023-10-08T15:42:47;18.10;99.90
52513;DHT22;38422;53.172;6.974;2023-10-08T15:45:15;18.00;99.90
52513;DHT22;38422;53.172;6.974;2023-10-08T15:47:41;18.00;99.90
52513;DHT22;38422;53.172;6.974;2023-10-08T15:50:07;17.90;99.90
52513;DHT22;38422;53.172;6.974;2023-10-08T15:52:37;17.80;99.90
52513;DHT22;38422;53.172;6.974;2023-10-08T15:55:06;17.80;99.90
52513;DHT22;38422;53.172;6.974;2023-10-08T15:57:33;17.60;99.90
52513;DHT22;38422;53.172;6.974;2023-10-08T15:59:59;17.60;99.90
52513;DHT22;38422;53.172;6.974;2023-10-08T16:02:25;17.50;99.90
52513;DHT22;38422;53.172;6.974;2023-10-08T16:04:50;17.40;99.90
52513;DHT22;38422;53.172;6.974;2023-10-08T16:07:16;17.40;99.90
52513;DHT22;38422;53.172;6.974;2023-10-08T16:09:42;17.30;99.90
52513;DHT22;38422;53.172;6.974;2023-10-08T16:12:08;17.30;99.90
52513;DHT22;38422;53.172;6.974;2023-10-08T16:14:34;17.20;99.90
52513;DHT22;38422;53.172;6.974;2023-10-08T16:17:00;17.20;99.90
52513;DHT22;38422;53.172;6.974;2023-10-08T16:19:30;17.20;99.90
52513;DHT22;38422;53.172;6.974;2023-10-08T16:21:57;17.20;99.90
52513;DHT22;38422;53.172;6.974;2023-10-08T16:24:23;17.10;99.90